createdAt,value
2018-09-02T00:00:50.632Z,15.19
2018-09-02T00:03:20.606Z,15.12
2018-09-02T00:05:52.097Z,15.03
2018-09-02T00:08:22.856Z,15.03
2018-09-02T00:10:52.780Z,15.03
2018-09-02T00:13:22.127Z,15.08
2018-09-02T00:15:52.386Z,15.10
2018-09-02T00:18:21.594Z,15.12
2018-09-02T00:20:52.030Z,15.16
2018-09-02T00:23:22.721Z,15.29
2018-09-02T00:25:53.162Z,15.33
2018-09-02T00:28:23.627Z,15.55
2018-09-02T00:30:51.977Z,15.50
2018-09-02T00:33:22.809Z,15.57
2018-09-02T00:35:52.177Z,15.65
2018-09-02T00:38:22.553Z,15.64
2018-09-02T00:40:51.923Z,15.59
2018-09-02T00:43:21.150Z,15.77
2018-09-02T00:45:52.920Z,15.76
2018-09-02T00:48:22.169Z,15.86
2018-09-02T00:50:51.521Z,15.84
2018-09-02T00:53:20.965Z,15.85
2018-09-02T00:55:52.505Z,15.87
2018-09-02T00:58:21.859Z,15.91
2018-09-02T01:00:51.121Z,15.89
2018-09-02T01:03:21.547Z,15.84
2018-09-02T01:05:52.881Z,15.97
2018-09-02T01:08:22.238Z,15.90
2018-09-02T01:10:53.016Z,15.86
2018-09-02T01:13:23.266Z,15.91
2018-09-02T01:15:53.092Z,15.82
2018-09-02T01:18:22.072Z,15.74
2018-09-02T01:20:51.492Z,15.70
2018-09-02T01:23:21.977Z,15.68
2018-09-02T01:25:52.459Z,15.71
2018-09-02T01:28:21.477Z,15.70
2018-09-02T01:30:50.924Z,15.71
2018-09-02T01:33:20.957Z,15.67
2018-09-02T01:35:52.208Z,15.60
2018-09-02T01:38:21.631Z,15.71
2018-09-02T01:40:50.714Z,15.68
2018-09-02T01:43:20.123Z,15.65
2018-09-02T01:45:50.844Z,15.74
2018-09-02T01:48:21.408Z,15.70
2018-09-02T01:50:50.741Z,15.66
2018-09-02T01:53:21.229Z,15.78
2018-09-02T01:55:52.077Z,15.72
2018-09-02T01:58:23.057Z,15.77
2018-09-02T02:00:52.404Z,15.82
2018-09-02T02:03:21.612Z,15.91
2018-09-02T02:05:52.779Z,15.85
2018-09-02T02:08:22.045Z,15.86
2018-09-02T02:10:52.286Z,15.99
2018-09-02T02:13:22.726Z,15.89
2018-09-02T02:15:53.814Z,16.04
2018-09-02T02:18:22.191Z,16.00
2018-09-02T02:20:51.409Z,16.07
2018-09-02T02:23:21.214Z,16.07
2018-09-02T02:25:51.676Z,16.11
2018-09-02T02:28:21.809Z,16.13
2018-09-02T02:30:52.584Z,16.17
2018-09-02T02:33:21.840Z,16.15
2018-09-02T02:35:53.089Z,16.16
2018-09-02T02:38:23.667Z,16.14
2018-09-02T02:40:52.883Z,16.03
2018-09-02T02:43:21.980Z,16.08
2018-09-02T02:45:53.288Z,16.05
2018-09-02T02:48:22.018Z,16.02
2018-09-02T02:50:50.969Z,16.04
2018-09-02T02:53:20.146Z,15.95
2018-09-02T02:55:50.592Z,15.92
2018-09-02T02:58:20.205Z,15.88
2018-09-02T03:00:48.653Z,16.00
2018-09-02T03:03:16.978Z,15.96
2018-09-02T03:05:45.332Z,15.94
2018-09-02T03:08:13.648Z,16.00
2018-09-02T03:10:42.141Z,15.95
2018-09-02T03:13:10.745Z,15.96
2018-09-02T03:15:39.073Z,16.01
2018-09-02T03:18:07.441Z,15.89
2018-09-02T03:20:35.780Z,15.94
2018-09-02T03:23:04.924Z,16.05
2018-09-02T03:25:33.284Z,15.97
2018-09-02T03:28:01.609Z,15.95
2018-09-02T03:30:29.966Z,15.94
2018-09-02T03:32:58.302Z,15.88
2018-09-02T03:35:27.565Z,15.94
2018-09-02T03:37:56.471Z,15.97
2018-09-02T03:40:25.476Z,16.02
2018-09-02T03:42:53.805Z,15.93
2018-09-02T03:45:22.164Z,15.88
2018-09-02T03:47:51.661Z,15.97
2018-09-02T03:50:21.527Z,15.93
2018-09-02T03:52:51.777Z,16.00
2018-09-02T03:55:20.757Z,15.96
2018-09-02T03:57:50.169Z,16.01
2018-09-02T04:00:20.011Z,16.00
2018-09-02T04:02:49.875Z,16.02
2018-09-02T04:05:19.296Z,16.06
2018-09-02T04:07:47.618Z,16.14
2018-09-02T04:10:15.948Z,16.14
2018-09-02T04:12:44.281Z,16.18
2018-09-02T04:15:12.712Z,16.17
2018-09-02T04:17:41.029Z,16.14
2018-09-02T04:20:09.631Z,16.08
2018-09-02T04:22:38.134Z,16.16
2018-09-02T04:25:06.528Z,16.12
2018-09-02T04:27:34.896Z,16.11
2018-09-02T04:30:03.355Z,16.13
2018-09-02T04:32:31.682Z,16.14
2018-09-02T04:35:01.056Z,16.16
2018-09-02T04:37:29.392Z,16.19
2018-09-02T04:39:59.017Z,16.19
2018-09-02T04:42:28.086Z,16.24
2018-09-02T04:44:58.280Z,16.16
2018-09-02T04:47:27.451Z,16.21
2018-09-02T04:49:56.794Z,16.23
2018-09-02T04:52:25.576Z,16.20
2018-09-02T04:54:54.049Z,16.19
2018-09-02T04:57:22.381Z,16.21
2018-09-02T04:59:51.000Z,16.20
2018-09-02T05:02:19.332Z,16.20
2018-09-02T05:04:47.661Z,16.22
2018-09-02T05:07:17.052Z,16.20
2018-09-02T05:09:45.365Z,16.24
2018-09-02T05:12:13.701Z,16.27
2018-09-02T05:14:42.997Z,16.24
2018-09-02T05:17:11.436Z,16.19
2018-09-02T05:19:39.816Z,16.25
2018-09-02T05:22:08.137Z,16.30
2018-09-02T05:24:37.357Z,16.34
2018-09-02T05:27:05.688Z,16.24
2018-09-02T05:29:34.004Z,16.30
2018-09-02T05:32:03.369Z,16.34
2018-09-02T05:34:32.710Z,16.30
2018-09-02T05:37:02.055Z,16.39
2018-09-02T05:39:31.225Z,16.40
2018-09-02T05:42:00.585Z,16.37
2018-09-02T05:44:29.940Z,16.44
2018-09-02T05:46:59.617Z,16.39
2018-09-02T05:49:29.710Z,16.38
2018-09-02T05:51:59.488Z,16.49
2018-09-02T05:54:29.701Z,16.45
2018-09-02T05:57:21.324Z,16.51
2018-09-02T06:02:35.607Z,16.66
2018-09-02T06:05:04.998Z,16.68
2018-09-02T06:07:34.312Z,16.72
2018-09-02T06:10:03.582Z,16.63
2018-09-02T06:12:32.008Z,16.62
2018-09-02T06:15:00.341Z,16.65
2018-09-02T06:17:28.666Z,16.67
2018-09-02T06:19:57.842Z,16.74
2018-09-02T06:22:26.725Z,16.67
2018-09-02T06:24:55.671Z,16.84
2018-09-02T06:27:23.992Z,16.76
2018-09-02T06:29:52.491Z,16.84
2018-09-02T06:32:21.818Z,16.86
2018-09-02T06:34:51.059Z,16.84
2018-09-02T06:37:19.511Z,16.82
2018-09-02T06:39:47.902Z,16.84
2018-09-02T06:42:16.244Z,16.80
2018-09-02T06:44:44.686Z,16.85
2018-09-02T06:47:13.081Z,16.93
2018-09-02T06:49:41.557Z,16.95
2018-09-02T06:52:10.133Z,17.02
2018-09-02T06:54:38.473Z,17.03
2018-09-02T06:57:06.777Z,17.03
2018-09-02T06:59:35.129Z,17.05
2018-09-02T07:02:03.545Z,17.18
2018-09-02T07:04:31.937Z,17.21
2018-09-02T07:07:00.262Z,17.18
2018-09-02T07:09:28.647Z,17.20
2018-09-02T07:11:57.077Z,17.30
2018-09-02T07:14:26.472Z,17.14
2018-09-02T07:16:54.781Z,17.26
2018-09-02T07:19:23.125Z,17.17
2018-09-02T07:21:51.452Z,17.10
2018-09-02T07:24:20.600Z,17.09
2018-09-02T07:26:49.845Z,17.21
2018-09-02T07:29:19.301Z,17.24
2018-09-02T07:31:48.730Z,17.22
2018-09-02T07:34:17.197Z,17.16
2018-09-02T07:36:45.791Z,17.14
2018-09-02T07:39:14.120Z,17.20
2018-09-02T07:41:51.116Z,17.17
2018-09-02T07:44:19.475Z,17.31
2018-09-02T07:46:50.265Z,17.20
2018-09-02T07:49:19.753Z,17.30
2018-09-02T07:51:48.293Z,17.32
2018-09-02T07:54:16.629Z,17.42
2018-09-02T07:56:44.961Z,17.44
2018-09-02T07:59:13.289Z,17.41
2018-09-02T08:01:41.628Z,17.41
2018-09-02T08:04:09.969Z,17.43
2018-09-02T08:06:38.377Z,17.57
2018-09-02T08:09:08.570Z,17.50
2018-09-02T08:11:36.952Z,17.54
2018-09-02T08:14:06.416Z,17.34
2018-09-02T08:16:34.777Z,17.28
2018-09-02T08:19:04.119Z,17.29
2018-09-02T08:21:32.726Z,17.22
2018-09-02T08:24:01.061Z,17.26
2018-09-02T08:26:29.503Z,17.29
2018-09-02T08:28:59.301Z,17.21
2018-09-02T08:31:28.664Z,17.20
2018-09-02T08:33:57.895Z,17.21
2018-09-02T08:36:27.949Z,17.17
2018-09-02T08:38:56.921Z,17.15
2018-09-02T08:41:25.779Z,17.25
2018-09-02T08:43:54.110Z,17.24
2018-09-02T08:46:22.650Z,17.20
2018-09-02T08:48:51.662Z,17.18
2018-09-02T08:51:22.061Z,17.28
2018-09-02T08:53:51.243Z,17.41
2018-09-02T08:56:19.837Z,17.38
2018-09-02T08:58:49.070Z,17.44
2018-09-02T09:01:17.473Z,17.43
2018-09-02T09:03:45.885Z,17.41
2018-09-02T09:06:14.334Z,17.33
2018-09-02T09:08:43.734Z,17.24
2018-09-02T09:11:12.010Z,17.25
2018-09-02T09:13:40.349Z,17.09
2018-09-02T09:16:08.742Z,16.97
2018-09-02T09:18:37.101Z,16.92
2018-09-02T09:23:42.248Z,16.97
2018-09-02T09:26:10.588Z,16.99
2018-09-02T09:28:38.923Z,17.01
2018-09-02T09:31:08.145Z,17.10
2018-09-02T09:33:37.592Z,17.28
2018-09-02T09:36:05.925Z,17.55
2018-09-02T09:38:34.437Z,17.61
2018-09-02T09:41:02.773Z,17.69
2018-09-02T09:43:31.924Z,17.68
2018-09-02T09:46:01.332Z,17.65
2018-09-02T09:48:30.613Z,17.70
2018-09-02T09:50:59.053Z,17.76
2018-09-02T09:53:27.406Z,17.58
2018-09-02T09:55:55.825Z,17.58
2018-09-02T09:58:24.166Z,17.68
2018-09-02T10:00:53.637Z,17.75
2018-09-02T10:03:22.696Z,17.75
2018-09-02T10:05:52.621Z,17.94
2018-09-02T10:08:21.873Z,17.96
2018-09-02T10:10:51.725Z,18.02
2018-09-02T10:13:21.412Z,18.19
2018-09-02T10:15:51.629Z,18.43
2018-09-02T10:18:21.789Z,18.50
2018-09-02T10:20:51.244Z,18.53
2018-09-02T10:23:21.128Z,18.54
2018-09-02T10:25:51.481Z,18.44
2018-09-02T10:28:21.646Z,18.36
2018-09-02T10:30:51.173Z,18.30
2018-09-02T10:33:21.223Z,18.28
2018-09-02T10:35:51.906Z,18.25
2018-09-02T10:38:21.235Z,18.15
2018-09-02T10:40:51.937Z,18.24
2018-09-02T10:43:21.196Z,18.18
2018-09-02T10:45:52.036Z,18.23
2018-09-02T10:48:20.906Z,18.21
2018-09-02T10:50:51.381Z,18.30
2018-09-02T10:53:19.714Z,18.26
2018-09-02T10:55:48.568Z,18.35
2018-09-02T10:58:16.925Z,18.36
2018-09-02T11:00:46.273Z,18.34
2018-09-02T11:03:14.701Z,18.64
2018-09-02T11:05:43.010Z,19.00
2018-09-02T11:08:11.384Z,19.28
2018-09-02T11:10:39.700Z,19.75
2018-09-02T11:13:09.072Z,20.16
2018-09-02T11:15:37.536Z,20.33
2018-09-02T11:18:06.702Z,20.35
2018-09-02T11:20:36.141Z,20.37
2018-09-02T11:23:04.871Z,20.29
2018-09-02T11:25:33.290Z,20.04
2018-09-02T11:28:01.791Z,19.92
2018-09-02T11:30:30.260Z,19.87
2018-09-02T11:32:58.877Z,19.64
2018-09-02T11:35:29.109Z,19.44
2018-09-02T11:37:57.956Z,19.35
2018-09-02T11:40:26.902Z,19.31
2018-09-02T11:42:56.905Z,19.29
2018-09-02T11:45:25.806Z,19.18
2018-09-02T11:47:55.803Z,19.33
2018-09-02T11:50:25.378Z,19.41
2018-09-02T11:52:53.792Z,19.65
2018-09-02T11:55:22.761Z,19.66
2018-09-02T11:57:51.835Z,19.82
2018-09-02T12:00:21.372Z,19.97
2018-09-02T12:02:49.990Z,20.19
2018-09-02T12:05:19.362Z,20.47
2018-09-02T12:07:47.861Z,20.88
2018-09-02T12:10:16.200Z,21.09
2018-09-02T12:12:44.600Z,21.23
2018-09-02T12:15:12.917Z,21.34
2018-09-02T12:17:43.446Z,21.23
2018-09-02T12:20:12.370Z,21.22
2018-09-02T12:22:42.720Z,21.20
2018-09-02T12:25:12.226Z,21.25
2018-09-02T12:27:42.197Z,21.17
2018-09-02T12:30:12.013Z,21.13
2018-09-02T12:32:40.389Z,21.16
2018-09-02T12:35:08.718Z,21.17
2018-09-02T12:37:38.768Z,21.18
2018-09-02T12:40:09.037Z,21.21
2018-09-02T12:42:47.331Z,21.25
2018-09-02T12:45:19.111Z,21.30
2018-09-02T12:47:47.760Z,21.42
2018-09-02T12:50:17.047Z,21.53
2018-09-02T12:52:45.389Z,21.65
2018-09-02T12:55:13.768Z,21.89
2018-09-02T12:57:43.030Z,22.14
2018-09-02T13:00:12.125Z,22.16
2018-09-02T13:02:41.427Z,22.24
2018-09-02T13:05:10.753Z,22.36
2018-09-02T13:07:39.117Z,22.29
2018-09-02T13:10:07.468Z,22.20
2018-09-02T13:12:35.973Z,22.19
2018-09-02T13:15:05.740Z,22.16
2018-09-02T13:17:34.054Z,22.18
2018-09-02T13:20:03.330Z,22.41
2018-09-02T13:22:31.677Z,22.51
2018-09-02T13:25:01.057Z,22.63
2018-09-02T13:27:29.501Z,22.80
2018-09-02T13:29:58.521Z,23.11
2018-09-02T13:32:28.897Z,23.22
2018-09-02T13:34:59.160Z,23.13
2018-09-02T13:37:27.613Z,23.07
2018-09-02T13:40:00.041Z,22.98
2018-09-02T13:42:34.244Z,23.08
2018-09-02T13:45:04.033Z,23.17
2018-09-02T13:47:33.402Z,23.35
2018-09-02T13:50:02.770Z,23.37
2018-09-02T13:52:31.110Z,23.37
2018-09-02T13:55:00.368Z,23.56
2018-09-02T13:57:28.696Z,23.73
2018-09-02T13:59:59.046Z,23.80
2018-09-02T14:02:29.861Z,23.88
2018-09-02T14:04:58.909Z,24.04
2018-09-02T14:07:28.245Z,24.01
2018-09-02T14:09:57.413Z,23.86
2018-09-02T14:12:27.993Z,23.69
2018-09-02T14:14:56.985Z,23.56
2018-09-02T14:17:25.386Z,23.46
2018-09-02T14:19:54.621Z,23.44
2018-09-02T14:22:23.028Z,23.49
2018-09-02T14:24:53.172Z,23.48
2018-09-02T14:27:23.014Z,23.43
2018-09-02T14:29:53.793Z,23.45
2018-09-02T14:32:23.408Z,23.50
2018-09-02T14:34:52.049Z,23.57
2018-09-02T14:37:22.890Z,23.67
2018-09-02T14:39:51.824Z,23.61
2018-09-02T14:42:21.835Z,23.53
2018-09-02T14:44:50.853Z,23.73
2018-09-02T14:47:20.977Z,23.83
2018-09-02T14:49:50.984Z,23.82
2018-09-02T14:52:20.124Z,23.75
2018-09-02T14:54:48.628Z,23.80
2018-09-02T14:57:16.976Z,23.94
2018-09-02T14:59:45.388Z,23.87
2018-09-02T15:02:14.020Z,24.00
2018-09-02T15:04:42.361Z,24.01
2018-09-02T15:07:10.710Z,23.88
2018-09-02T15:09:39.266Z,23.81
2018-09-02T15:12:07.739Z,23.64
2018-09-02T15:14:37.093Z,23.52
2018-09-02T15:17:05.432Z,23.44
2018-09-02T15:19:33.830Z,23.38
2018-09-02T15:22:02.479Z,23.32
2018-09-02T15:24:30.987Z,23.24
2018-09-02T15:26:59.365Z,23.17
2018-09-02T15:29:29.149Z,23.26
2018-09-02T15:31:59.012Z,23.20
2018-09-02T15:34:28.022Z,23.24
2018-09-02T15:36:57.182Z,23.21
2018-09-02T15:39:26.155Z,23.16
2018-09-02T15:41:54.445Z,23.14
2018-09-02T15:44:22.834Z,23.26
2018-09-02T15:46:51.806Z,23.20
2018-09-02T15:49:20.945Z,23.21
2018-09-02T15:51:50.685Z,23.21
2018-09-02T15:54:20.233Z,23.24
2018-09-02T15:56:48.659Z,23.20
2018-09-02T15:59:18.100Z,23.27
2018-09-02T16:01:46.445Z,23.25
2018-09-02T16:04:14.793Z,23.33
2018-09-02T16:06:43.241Z,23.33
2018-09-02T16:09:12.613Z,23.33
2018-09-02T16:11:41.860Z,23.35
2018-09-02T16:14:11.362Z,23.27
2018-09-02T16:16:40.024Z,23.30
2018-09-02T16:19:09.040Z,23.40
2018-09-02T16:21:38.435Z,23.27
2018-09-02T16:24:07.157Z,23.22
2018-09-02T16:26:36.269Z,23.21
2018-09-02T16:29:05.631Z,23.17
2018-09-02T16:31:35.145Z,23.21
2018-09-02T16:34:03.485Z,23.13
2018-09-02T16:36:31.883Z,23.13
2018-09-02T16:39:01.248Z,23.01
2018-09-02T16:41:29.626Z,22.92
2018-09-02T16:43:59.017Z,22.90
2018-09-02T16:46:28.815Z,22.88
2018-09-02T16:48:58.956Z,22.84
2018-09-02T16:51:28.351Z,22.83
2018-09-02T16:53:57.959Z,22.84
2018-09-02T16:56:26.978Z,22.74
2018-09-02T16:58:56.072Z,22.73
2018-09-02T17:01:24.446Z,22.71
2018-09-02T17:04:00.798Z,22.68
2018-09-02T17:06:29.349Z,22.57
2018-09-02T17:08:58.696Z,22.63
2018-09-02T17:11:28.701Z,22.61
2018-09-02T17:13:58.223Z,22.58
2018-09-02T17:16:28.743Z,22.58
2018-09-02T17:19:02.397Z,22.49
2018-09-02T17:21:30.822Z,22.51
2018-09-02T17:24:00.185Z,22.58
2018-09-02T17:26:29.785Z,22.52
2018-09-02T17:28:59.312Z,22.49
2018-09-02T17:31:28.817Z,22.50
2018-09-02T17:33:59.005Z,22.47
2018-09-02T17:36:28.649Z,22.47
2018-09-02T17:38:57.296Z,22.46
2018-09-02T17:41:26.049Z,22.46
2018-09-02T17:43:57.164Z,22.41
2018-09-02T17:46:26.030Z,22.39
2018-09-02T17:48:54.471Z,22.30
2018-09-02T17:51:22.953Z,22.35
2018-09-02T17:53:52.322Z,22.29
2018-09-02T17:56:21.845Z,22.27
2018-09-02T17:58:50.818Z,22.15
2018-09-02T18:01:21.219Z,22.07
2018-09-02T18:03:49.750Z,22.11
2018-09-02T18:06:18.165Z,22.16
2018-09-02T18:08:52.746Z,22.12
2018-09-02T18:11:22.577Z,22.10
2018-09-02T18:13:52.205Z,21.92
2018-09-02T18:16:22.536Z,21.83
2018-09-02T18:18:52.485Z,21.78
2018-09-02T18:21:23.304Z,21.75
2018-09-02T18:23:59.044Z,21.71
2018-09-02T18:26:28.421Z,21.74
2018-09-02T18:28:59.743Z,21.65
2018-09-02T18:31:31.516Z,21.45
2018-09-02T18:34:00.345Z,21.49
2018-09-02T18:36:29.116Z,21.41
2018-09-02T18:38:58.107Z,21.29
2018-09-02T18:41:26.593Z,21.46
2018-09-02T18:43:54.970Z,21.37
2018-09-02T18:46:23.490Z,21.12
2018-09-02T18:48:52.844Z,20.99
2018-09-02T18:51:25.998Z,20.94
2018-09-02T18:53:54.341Z,20.94
2018-09-02T18:56:22.934Z,20.62
2018-09-02T18:58:52.873Z,20.53
2018-09-02T19:01:22.673Z,20.62
2018-09-02T19:03:52.990Z,20.42
2018-09-02T19:06:23.373Z,20.51
2018-09-02T19:08:52.650Z,20.45
2018-09-02T19:11:21.296Z,20.47
2018-09-02T19:13:49.746Z,20.32
2018-09-02T19:16:18.237Z,20.25
2018-09-02T19:18:47.670Z,20.17
2018-09-02T19:21:17.325Z,20.27
2018-09-02T19:23:46.820Z,20.15
2018-09-02T19:26:15.322Z,20.07
2018-09-02T19:28:43.661Z,20.05
2018-09-02T19:31:12.981Z,20.11
2018-09-02T19:33:41.467Z,19.92
2018-09-02T19:36:09.797Z,19.78
2018-09-02T19:38:39.161Z,19.74
2018-09-02T19:41:08.657Z,19.50
2018-09-02T19:43:37.142Z,19.33
2018-09-02T19:46:05.636Z,19.19
2018-09-02T19:48:35.099Z,19.10
2018-09-02T19:51:03.537Z,19.18
2018-09-02T19:53:31.933Z,19.04
2018-09-02T19:56:01.829Z,18.93
2018-09-02T19:58:30.189Z,18.99
2018-09-02T20:00:58.974Z,19.09
2018-09-02T20:03:29.312Z,19.04
2018-09-02T20:05:57.933Z,19.03
2018-09-02T20:08:27.157Z,19.24
2018-09-02T20:10:56.158Z,19.00
2018-09-02T20:13:26.117Z,19.27
2018-09-02T20:15:55.649Z,19.09
2018-09-02T20:18:24.036Z,19.20
2018-09-02T20:20:52.401Z,19.06
2018-09-02T20:23:22.457Z,19.17
2018-09-02T20:25:52.428Z,19.25
2018-09-02T20:28:21.875Z,19.24
2018-09-02T20:30:51.437Z,19.37
2018-09-02T20:33:20.968Z,19.35
2018-09-02T20:35:52.400Z,19.46
2018-09-02T20:38:21.343Z,19.31
2018-09-02T20:40:50.126Z,19.36
2018-09-02T20:43:19.362Z,19.48
2018-09-02T20:45:47.802Z,19.52
2018-09-02T20:48:17.008Z,19.46
2018-09-02T20:50:45.409Z,19.54
2018-09-02T20:53:13.754Z,19.67
2018-09-02T20:55:42.296Z,19.58
2018-09-02T20:58:10.694Z,19.48
2018-09-02T21:00:39.064Z,19.50
2018-09-02T21:03:07.442Z,19.50
2018-09-02T21:05:35.766Z,19.46
2018-09-02T21:08:04.189Z,19.36
2018-09-02T21:10:32.646Z,19.41
2018-09-02T21:13:01.115Z,19.52
2018-09-02T21:15:30.330Z,19.42
2018-09-02T21:18:00.175Z,19.40
2018-09-02T21:20:29.443Z,19.31
2018-09-02T21:22:58.981Z,19.45
2018-09-02T21:25:28.173Z,19.50
2018-09-02T21:27:57.161Z,19.39
2018-09-02T21:30:26.203Z,19.35
2018-09-02T21:32:54.567Z,19.39
2018-09-02T21:35:23.422Z,19.69
2018-09-02T21:37:52.388Z,19.68
2018-09-02T21:40:21.569Z,19.63
2018-09-02T21:42:51.193Z,19.75
2018-09-02T21:45:20.418Z,19.60
2018-09-02T21:47:48.782Z,19.66
2018-09-02T21:50:17.246Z,19.74
2018-09-02T21:52:45.598Z,19.63
2018-09-02T21:55:13.997Z,19.72
2018-09-02T21:57:42.406Z,19.78
2018-09-02T22:00:13.336Z,19.77
2018-09-02T22:02:41.688Z,19.76
2018-09-02T22:05:11.670Z,19.74
2018-09-02T22:07:40.585Z,19.70
2018-09-02T22:10:09.084Z,19.49
2018-09-02T22:12:37.460Z,19.50
2018-09-02T22:15:06.689Z,19.66
2018-09-02T22:17:35.011Z,19.68
2018-09-02T22:20:03.529Z,19.59
2018-09-02T22:22:32.157Z,19.79
2018-09-02T22:25:00.593Z,19.68
2018-09-02T22:27:29.079Z,19.68
2018-09-02T22:29:59.484Z,19.60
2018-09-02T22:32:28.840Z,19.66
2018-09-02T22:34:59.109Z,19.77
2018-09-02T22:37:29.405Z,19.81
2018-09-02T22:40:00.045Z,19.80
2018-09-02T22:42:29.507Z,19.88
2018-09-02T22:45:00.258Z,19.91
2018-09-02T22:47:30.268Z,19.94
2018-09-02T22:49:59.393Z,20.04
2018-09-02T22:52:30.001Z,20.11
2018-09-02T22:54:59.241Z,20.13
2018-09-02T22:57:28.545Z,20.14
2018-09-02T22:59:57.765Z,20.06
2018-09-02T23:02:28.061Z,20.13
2018-09-02T23:04:57.879Z,19.99
2018-09-02T23:07:27.285Z,20.06
2018-09-02T23:09:57.245Z,20.01
2018-09-02T23:12:27.093Z,20.05
2018-09-02T23:14:55.429Z,20.11
2018-09-02T23:17:26.245Z,20.05
2018-09-02T23:19:54.628Z,20.10
2018-09-02T23:22:23.801Z,20.10
2018-09-02T23:24:52.133Z,20.24
2018-09-02T23:27:22.409Z,20.23
2018-09-02T23:29:53.301Z,20.29
2018-09-02T23:32:23.869Z,20.22
2018-09-02T23:34:52.229Z,20.22
2018-09-02T23:37:22.092Z,20.12
2018-09-02T23:39:51.888Z,20.20
2018-09-02T23:42:22.669Z,20.19
2018-09-02T23:44:51.620Z,20.23
2018-09-02T23:47:21.093Z,20.24
2018-09-02T23:49:50.622Z,20.31
2018-09-02T23:52:21.029Z,20.26
2018-09-02T23:54:51.044Z,20.21
2018-09-02T23:57:21.804Z,20.23
2018-09-02T23:59:50.821Z,20.19
